Time;durP1;ratioP1;P1;durP2;ratioP2;P2;SDS_P1;SDS_P2;PMS_P1;PMS_P2;Temp;Humidity;BMP_temperature;BMP_pressure;BME280_temperature;BME280_humidity;BME280_pressure;Samples;Min_cycle;Max_cycle;Signal;HPM_P1;HPM_P2
2021/10/26 00:01:12;;;;;;;;;;;8.10;68.40;;;;;;4981276;28;86391;-62
2021/10/26 00:03:38;;;;;;;;;;;8.10;68.40;;;;;;4982597;28;87979;-62
2021/10/26 00:06:04;;;;;;;;;;;8.10;68.40;;;;;;4979576;28;87142;-62
2021/10/26 00:08:29;;;;;;;;;;;8.10;68.50;;;;;;4977987;28;88097;-61
2021/10/26 00:10:55;;;;;;;;;;;8.10;68.40;;;;;;4977578;28;87139;-62
2021/10/26 00:13:20;;;;;;;;;;;8.10;68.40;;;;;;4980904;28;87905;-63
2021/10/26 00:15:46;;;;;;;;;;;8.10;68.40;;;;;;4983164;28;87244;-63
2021/10/26 00:18:12;;;;;;;;;;;8.10;68.50;;;;;;4981539;28;87612;-62
2021/10/26 00:20:37;;;;;;;;;;;8.10;68.40;;;;;;4981128;28;87126;-62
2021/10/26 00:23:03;;;;;;;;;;;8.00;68.30;;;;;;4980370;28;87151;-62
2021/10/26 00:25:28;;;;;;;;;;;8.00;68.40;;;;;;4982652;28;87398;-62
2021/10/26 00:27:54;;;;;;;;;;;8.00;68.50;;;;;;4978892;28;87835;-62
2021/10/26 00:30:19;;;;;;;;;;;7.90;68.40;;;;;;4977708;28;88251;-62
2021/10/26 00:32:45;;;;;;;;;;;7.90;68.40;;;;;;4977809;28;88983;-62
2021/10/26 00:35:11;;;;;;;;;;;8.00;68.40;;;;;;4981562;28;89717;-63
2021/10/26 00:37:37;;;;;;;;;;;7.90;68.40;;;;;;4981885;28;88488;-62
2021/10/26 00:40:06;;;;;;;;;;;7.90;68.40;;;;;;4981559;28;87310;-62
2021/10/26 00:42:32;;;;;;;;;;;7.90;68.40;;;;;;4982397;28;89189;-62
2021/10/26 00:44:57;;;;;;;;;;;7.90;68.50;;;;;;4981380;28;88374;-62
2021/10/26 00:47:23;;;;;;;;;;;7.90;68.30;;;;;;4984012;28;87177;-62
2021/10/26 00:49:48;;;;;;;;;;;7.90;68.40;;;;;;4980486;28;87189;-62
2021/10/26 00:52:14;;;;;;;;;;;7.90;68.40;;;;;;4979477;28;87136;-62
2021/10/26 00:54:39;;;;;;;;;;;7.80;68.30;;;;;;4978834;28;87438;-62
2021/10/26 00:57:05;;;;;;;;;;;7.90;68.30;;;;;;4976949;28;90171;-62
2021/10/26 00:59:31;;;;;;;;;;;7.80;68.20;;;;;;4977336;28;87137;-62
2021/10/26 01:01:56;;;;;;;;;;;7.80;68.10;;;;;;4979961;28;88818;-62
2021/10/26 01:04:22;;;;;;;;;;;7.80;68.20;;;;;;4981891;28;88048;-63
2021/10/26 01:06:47;;;;;;;;;;;7.80;68.10;;;;;;4984145;28;87161;-63
2021/10/26 01:09:14;;;;;;;;;;;7.80;68.10;;;;;;4979995;28;89735;-62
2021/10/26 01:11:40;;;;;;;;;;;7.80;68.10;;;;;;4979434;28;87140;-62
2021/10/26 01:14:05;;;;;;;;;;;7.80;68.10;;;;;;4979241;28;87236;-62
2021/10/26 01:16:31;;;;;;;;;;;7.80;68.20;;;;;;4977408;28;89430;-63
2021/10/26 01:18:57;;;;;;;;;;;7.70;68.20;;;;;;4976897;28;87170;-62
2021/10/26 01:21:23;;;;;;;;;;;7.70;68.20;;;;;;4980852;28;89155;-63
2021/10/26 01:23:49;;;;;;;;;;;7.70;68.80;;;;;;4979949;28;89378;-62
2021/10/26 01:26:15;;;;;;;;;;;7.70;68.30;;;;;;4979290;28;87133;-62
2021/10/26 01:28:40;;;;;;;;;;;7.70;68.30;;;;;;4981299;28;87197;-62
2021/10/26 01:31:06;;;;;;;;;;;7.70;68.20;;;;;;4977576;28;87247;-62
2021/10/26 01:33:31;;;;;;;;;;;7.70;68.30;;;;;;4977119;28;87271;-62
2021/10/26 01:35:57;;;;;;;;;;;7.60;68.10;;;;;;4978280;28;89533;-62
2021/10/26 01:38:23;;;;;;;;;;;7.60;68.20;;;;;;4981684;28;87855;-62
2021/10/26 01:40:49;;;;;;;;;;;7.60;68.20;;;;;;4980545;28;87157;-62
2021/10/26 01:43:14;;;;;;;;;;;7.70;68.20;;;;;;4979361;28;87625;-62
2021/10/26 01:45:40;;;;;;;;;;;7.60;68.10;;;;;;4977980;28;88119;-62
2021/10/26 01:48:05;;;;;;;;;;;7.60;68.20;;;;;;4977466;28;88630;-61
2021/10/26 01:50:31;;;;;;;;;;;7.60;68.10;;;;;;4979920;28;88224;-62
2021/10/26 01:52:57;;;;;;;;;;;7.60;68.00;;;;;;4976481;28;89166;-62
2021/10/26 01:55:23;;;;;;;;;;;7.60;68.00;;;;;;4978215;28;88864;-62
2021/10/26 01:57:49;;;;;;;;;;;7.60;68.00;;;;;;4980715;28;87140;-63
2021/10/26 02:00:18;;;;;;;;;;;7.60;68.00;;;;;;4979747;28;87244;-62
2021/10/26 02:02:45;;;;;;;;;;;7.60;68.00;;;;;;4980618;28;88623;-62
2021/10/26 02:05:10;;;;;;;;;;;7.60;68.00;;;;;;4977935;28;87251;-62
2021/10/26 02:07:36;;;;;;;;;;;7.50;67.90;;;;;;4976967;28;87765;-62
2021/10/26 02:10:02;;;;;;;;;;;7.50;68.00;;;;;;4975325;28;89107;-62
2021/10/26 02:12:28;;;;;;;;;;;7.50;68.00;;;;;;4983279;28;87124;-63
2021/10/26 02:14:54;;;;;;;;;;;7.50;68.00;;;;;;4979855;28;88245;-62
2021/10/26 02:17:19;;;;;;;;;;;7.50;67.90;;;;;;4979070;28;87217;-62
2021/10/26 02:19:45;;;;;;;;;;;7.50;68.00;;;;;;4978832;28;87496;-62
2021/10/26 02:22:10;;;;;;;;;;;7.50;67.90;;;;;;4978804;28;87837;-62
2021/10/26 02:24:36;;;;;;;;;;;7.40;68.00;;;;;;4978746;28;87134;-62
2021/10/26 02:27:01;;;;;;;;;;;7.40;67.90;;;;;;4978074;28;87082;-62
2021/10/26 02:29:27;;;;;;;;;;;7.40;68.60;;;;;;4976454;28;87990;-62
2021/10/26 02:31:53;;;;;;;;;;;7.50;68.00;;;;;;4975899;28;87131;-62
2021/10/26 02:34:19;;;;;;;;;;;7.40;67.80;;;;;;4982939;28;88067;-63
2021/10/26 02:36:45;;;;;;;;;;;7.40;68.00;;;;;;4980205;28;87214;-62
2021/10/26 02:39:11;;;;;;;;;;;7.40;68.10;;;;;;4978694;28;87246;-62
2021/10/26 02:41:37;;;;;;;;;;;7.30;68.00;;;;;;4977082;28;89158;-62
2021/10/26 02:44:02;;;;;;;;;;;7.30;67.90;;;;;;4976202;28;87117;-62
2021/10/26 02:46:28;;;;;;;;;;;7.30;67.90;;;;;;4976230;28;88762;-61
2021/10/26 02:48:53;;;;;;;;;;;7.30;67.90;;;;;;4979098;28;88678;-63
2021/10/26 02:51:19;;;;;;;;;;;7.30;67.90;;;;;;4981164;28;86434;-63
2021/10/26 02:53:44;;;;;;;;;;;7.30;67.80;;;;;;4979750;28;88171;-62
2021/10/26 02:56:10;;;;;;;;;;;7.30;67.80;;;;;;4981631;28;89482;-62
2021/10/26 02:58:35;;;;;;;;;;;7.30;67.80;;;;;;4979902;28;88163;-62
2021/10/26 03:01:02;;;;;;;;;;;7.30;68.00;;;;;;4980897;28;87853;-62
2021/10/26 03:03:28;;;;;;;;;;;7.30;68.00;;;;;;4979408;28;87257;-62
2021/10/26 03:05:54;;;;;;;;;;;7.20;67.80;;;;;;4982661;28;89168;-62
2021/10/26 03:08:19;;;;;;;;;;;7.20;67.80;;;;;;4982894;28;89852;-62
2021/10/26 03:10:45;;;;;;;;;;;7.20;67.80;;;;;;4982643;28;87122;-62
2021/10/26 03:13:11;;;;;;;;;;;7.20;67.80;;;;;;4981308;28;88241;-62
2021/10/26 03:15:36;;;;;;;;;;;7.20;67.90;;;;;;4983611;28;87705;-62
2021/10/26 03:18:02;;;;;;;;;;;7.20;67.80;;;;;;4979673;28;87831;-62
2021/10/26 03:20:28;;;;;;;;;;;7.20;67.90;;;;;;4978804;28;89987;-62
2021/10/26 03:22:54;;;;;;;;;;;7.10;67.90;;;;;;4979972;28;89634;-62
2021/10/26 03:25:21;;;;;;;;;;;7.10;67.90;;;;;;4983469;28;89716;-63
2021/10/26 03:27:47;;;;;;;;;;;7.10;67.80;;;;;;4981088;28;89769;-63
2021/10/26 03:30:12;;;;;;;;;;;7.10;67.80;;;;;;4980338;28;87171;-62
2021/10/26 03:32:38;;;;;;;;;;;7.10;67.70;;;;;;4979348;28;87125;-62
2021/10/26 03:35:04;;;;;;;;;;;7.00;67.70;;;;;;4978293;28;89888;-62
2021/10/26 03:37:29;;;;;;;;;;;7.00;67.80;;;;;;4985881;28;88734;-63
2021/10/26 03:39:56;;;;;;;;;;;7.00;67.80;;;;;;4983457;28;87451;-63
2021/10/26 03:42:25;;;;;;;;;;;7.10;67.90;;;;;;4981505;28;87164;-62
2021/10/26 03:44:51;;;;;;;;;;;7.10;67.70;;;;;;4983111;28;87539;-63
2021/10/26 03:47:17;;;;;;;;;;;7.00;67.60;;;;;;4980571;28;89199;-62
2021/10/26 03:49:42;;;;;;;;;;;7.00;67.80;;;;;;4980213;28;87132;-62
2021/10/26 03:52:09;;;;;;;;;;;7.00;67.80;;;;;;4979033;28;88333;-62
2021/10/26 03:54:35;;;;;;;;;;;7.00;67.80;;;;;;4979261;28;89166;-63
2021/10/26 03:57:00;;;;;;;;;;;7.00;67.70;;;;;;4982381;28;87303;-63
2021/10/26 03:59:30;;;;;;;;;;;7.00;67.70;;;;;;4984220;28;87150;-63
2021/10/26 04:01:56;;;;;;;;;;;6.90;67.70;;;;;;4981883;28;87144;-62
2021/10/26 04:04:22;;;;;;;;;;;6.90;67.70;;;;;;4980943;28;89013;-62
2021/10/26 04:06:48;;;;;;;;;;;6.90;67.70;;;;;;4979512;28;87975;-62
2021/10/26 04:09:14;;;;;;;;;;;6.90;67.70;;;;;;4977234;28;87130;-62
2021/10/26 04:11:52;;;;;;;;;;;6.90;67.80;;;;;;4981966;28;89229;-63
2021/10/26 04:14:18;;;;;;;;;;;6.90;67.70;;;;;;4979287;28;89111;-62
2021/10/26 04:16:43;;;;;;;;;;;6.90;67.70;;;;;;4978196;28;87151;-61
2021/10/26 04:19:12;;;;;;;;;;;6.80;67.70;;;;;;4977925;28;88771;-62
2021/10/26 04:21:37;;;;;;;;;;;6.80;67.70;;;;;;4982227;28;88000;-62
2021/10/26 04:24:03;;;;;;;;;;;6.80;67.60;;;;;;4979010;28;87185;-62
2021/10/26 04:26:29;;;;;;;;;;;6.80;67.70;;;;;;4977421;28;89293;-63
2021/10/26 04:28:54;;;;;;;;;;;6.80;67.70;;;;;;4982951;28;86464;-63
2021/10/26 04:31:20;;;;;;;;;;;6.80;67.70;;;;;;4982234;28;88343;-63
2021/10/26 04:33:46;;;;;;;;;;;6.80;67.70;;;;;;4981274;28;88204;-62
2021/10/26 04:36:11;;;;;;;;;;;6.80;67.70;;;;;;4981114;28;88135;-62
2021/10/26 04:38:37;;;;;;;;;;;6.80;67.70;;;;;;4982199;28;89671;-62
2021/10/26 04:41:07;;;;;;;;;;;6.70;67.60;;;;;;4981648;28;88081;-62
2021/10/26 04:43:33;;;;;;;;;;;6.70;67.70;;;;;;4980673;28;88989;-62
2021/10/26 04:45:59;;;;;;;;;;;6.70;67.60;;;;;;4977880;28;88233;-62
2021/10/26 04:48:24;;;;;;;;;;;6.70;67.70;;;;;;4979091;28;87136;-62
2021/10/26 04:50:50;;;;;;;;;;;6.70;67.60;;;;;;4978706;28;88861;-62
2021/10/26 04:53:16;;;;;;;;;;;6.70;67.60;;;;;;4980007;28;87581;-62
2021/10/26 04:55:41;;;;;;;;;;;6.70;67.60;;;;;;4980911;28;87175;-62
2021/10/26 04:58:07;;;;;;;;;;;6.70;67.70;;;;;;4982143;28;87229;-63
2021/10/26 05:00:32;;;;;;;;;;;6.60;67.70;;;;;;4981059;28;89207;-63
2021/10/26 05:02:58;;;;;;;;;;;6.60;67.70;;;;;;4979948;28;88403;-62
2021/10/26 05:05:23;;;;;;;;;;;6.60;67.70;;;;;;4980001;28;87483;-62
2021/10/26 05:07:50;;;;;;;;;;;6.60;67.60;;;;;;4978581;28;87142;-62
2021/10/26 05:10:16;;;;;;;;;;;6.60;67.70;;;;;;4978510;28;89115;-63
2021/10/26 05:12:42;;;;;;;;;;;6.50;67.70;;;;;;4978655;28;88680;-63
2021/10/26 05:15:07;;;;;;;;;;;6.60;67.70;;;;;;4980065;28;87183;-62
2021/10/26 05:17:34;;;;;;;;;;;6.50;67.70;;;;;;4981068;28;88410;-63
2021/10/26 05:19:59;;;;;;;;;;;6.50;67.60;;;;;;4980710;28;89652;-63
2021/10/26 05:22:27;;;;;;;;;;;6.50;67.70;;;;;;4981422;28;87128;-63
2021/10/26 05:24:53;;;;;;;;;;;6.50;67.50;;;;;;4981276;28;89280;-62
2021/10/26 05:27:19;;;;;;;;;;;6.50;67.50;;;;;;4980012;28;87187;-63
2021/10/26 05:29:45;;;;;;;;;;;6.50;67.50;;;;;;4980061;28;87848;-63
2021/10/26 05:32:11;;;;;;;;;;;6.50;67.60;;;;;;4980202;28;87631;-63
2021/10/26 05:34:37;;;;;;;;;;;6.50;67.60;;;;;;4981559;28;87286;-63
2021/10/26 05:37:03;;;;;;;;;;;6.50;67.60;;;;;;4981002;28;88001;-62
2021/10/26 05:39:29;;;;;;;;;;;6.50;67.60;;;;;;4980637;28;88397;-62
2021/10/26 05:41:55;;;;;;;;;;;6.50;67.50;;;;;;4978032;28;87558;-62
2021/10/26 05:44:20;;;;;;;;;;;6.50;67.60;;;;;;4979506;28;87857;-62
2021/10/26 05:46:46;;;;;;;;;;;6.40;67.70;;;;;;4979492;28;88225;-62
2021/10/26 05:49:12;;;;;;;;;;;6.40;67.70;;;;;;4977460;28;88598;-63
2021/10/26 05:51:37;;;;;;;;;;;6.40;67.60;;;;;;4978799;28;87570;-63
2021/10/26 05:54:03;;;;;;;;;;;6.40;67.60;;;;;;4980032;28;87155;-63
2021/10/26 05:56:29;;;;;;;;;;;6.40;67.60;;;;;;4979946;28;87226;-62
2021/10/26 05:58:54;;;;;;;;;;;6.40;67.50;;;;;;4980463;28;88123;-62
2021/10/26 06:01:21;;;;;;;;;;;6.40;67.60;;;;;;4979551;28;88042;-62
2021/10/26 06:03:47;;;;;;;;;;;6.40;67.70;;;;;;4981113;28;88712;-62
2021/10/26 06:06:12;;;;;;;;;;;6.40;67.60;;;;;;4978810;28;87981;-62
2021/10/26 06:08:38;;;;;;;;;;;6.40;67.70;;;;;;4979671;28;87166;-62
2021/10/26 06:11:10;;;;;;;;;;;6.40;67.50;;;;;;4977416;28;88875;-62
2021/10/26 06:13:40;;;;;;;;;;;6.30;67.50;;;;;;4976483;28;88095;-62
2021/10/26 06:16:05;;;;;;;;;;;6.30;67.50;;;;;;4978355;28;88547;-62
2021/10/26 06:18:31;;;;;;;;;;;6.30;67.60;;;;;;4978815;28;88284;-63
2021/10/26 06:20:57;;;;;;;;;;;6.30;67.60;;;;;;4980662;28;87157;-63
2021/10/26 06:23:23;;;;;;;;;;;6.30;67.70;;;;;;4980627;28;88846;-62
2021/10/26 06:25:49;;;;;;;;;;;6.30;67.60;;;;;;4980412;28;89722;-62
2021/10/26 06:28:15;;;;;;;;;;;6.30;67.70;;;;;;4978628;28;87305;-62
2021/10/26 06:30:41;;;;;;;;;;;6.20;67.80;;;;;;4981006;28;88977;-62
2021/10/26 06:33:07;;;;;;;;;;;6.30;67.80;;;;;;4975526;28;87166;-62
2021/10/26 06:35:33;;;;;;;;;;;6.30;67.70;;;;;;4976730;28;89221;-62
2021/10/26 06:37:58;;;;;;;;;;;6.20;67.80;;;;;;4976967;28;89001;-62
2021/10/26 06:40:24;;;;;;;;;;;6.30;67.70;;;;;;4979192;28;87095;-62
2021/10/26 06:42:50;;;;;;;;;;;6.20;67.60;;;;;;4979247;28;88634;-62
2021/10/26 06:45:15;;;;;;;;;;;6.30;67.70;;;;;;4980286;28;88209;-62
2021/10/26 06:47:41;;;;;;;;;;;6.20;67.80;;;;;;4978050;28;88689;-62
2021/10/26 06:50:07;;;;;;;;;;;6.20;67.90;;;;;;4976220;28;88516;-62
2021/10/26 06:52:34;;;;;;;;;;;6.10;67.90;;;;;;4979295;28;87432;-62
2021/10/26 06:55:00;;;;;;;;;;;6.20;67.90;;;;;;4976420;28;88568;-62
2021/10/26 06:57:27;;;;;;;;;;;6.20;67.80;;;;;;4975552;28;89604;-62
2021/10/26 06:59:53;;;;;;;;;;;6.20;67.90;;;;;;4976511;28;88157;-62
2021/10/26 07:02:18;;;;;;;;;;;6.20;67.70;;;;;;4975994;28;88192;-62
2021/10/26 07:04:45;;;;;;;;;;;6.10;68.00;;;;;;4977264;28;89836;-62
2021/10/26 07:07:11;;;;;;;;;;;6.10;68.00;;;;;;4977685;28;87226;-62
2021/10/26 07:09:37;;;;;;;;;;;6.10;68.00;;;;;;4978095;28;88895;-62
2021/10/26 07:12:03;;;;;;;;;;;6.10;68.10;;;;;;4978319;28;89772;-62
2021/10/26 07:14:28;;;;;;;;;;;6.10;68.10;;;;;;4982674;28;87202;-62
2021/10/26 07:16:54;;;;;;;;;;;6.10;68.10;;;;;;4978479;28;88227;-62
2021/10/26 07:19:20;;;;;;;;;;;6.10;68.10;;;;;;4976762;28;87332;-62
2021/10/26 07:21:45;;;;;;;;;;;6.10;68.30;;;;;;4976350;28;87147;-62
2021/10/26 07:24:13;;;;;;;;;;;6.10;68.20;;;;;;4975877;28;88258;-62
2021/10/26 07:26:40;;;;;;;;;;;6.00;68.40;;;;;;4974972;28;88179;-62
2021/10/26 07:29:06;;;;;;;;;;;6.00;68.50;;;;;;4975964;28;89984;-62
2021/10/26 07:31:31;;;;;;;;;;;6.00;68.60;;;;;;4975172;28;88044;-62
2021/10/26 07:33:59;;;;;;;;;;;6.00;68.50;;;;;;4979586;28;87130;-62
2021/10/26 07:36:29;;;;;;;;;;;6.10;68.50;;;;;;4975021;28;91218;-62
2021/10/26 07:39:05;;;;;;;;;;;6.00;68.50;;;;;;4976091;28;87206;-62
2021/10/26 07:41:31;;;;;;;;;;;6.10;68.50;;;;;;4976398;28;87689;-62
2021/10/26 07:43:56;;;;;;;;;;;6.10;68.50;;;;;;4977247;28;88858;-62
2021/10/26 07:46:22;;;;;;;;;;;6.10;68.40;;;;;;4981116;28;87184;-62
2021/10/26 07:48:48;;;;;;;;;;;6.10;68.40;;;;;;4981085;28;87151;-62
2021/10/26 07:51:14;;;;;;;;;;;6.10;68.40;;;;;;4978512;28;90725;-62
2021/10/26 07:53:39;;;;;;;;;;;6.00;68.70;;;;;;4978507;28;87136;-62
2021/10/26 07:56:07;;;;;;;;;;;6.10;68.50;;;;;;4981195;28;89126;-62
2021/10/26 07:58:33;;;;;;;;;;;6.00;68.70;;;;;;4982053;28;88905;-62
2021/10/26 08:00:58;;;;;;;;;;;6.00;68.90;;;;;;4979470;28;88860;-62
2021/10/26 08:03:24;;;;;;;;;;;6.00;68.90;;;;;;4978743;28;87927;-62
2021/10/26 08:05:50;;;;;;;;;;;6.00;69.00;;;;;;4980310;28;87176;-62
2021/10/26 08:08:17;;;;;;;;;;;5.90;69.10;;;;;;4981193;28;87775;-62
2021/10/26 08:10:43;;;;;;;;;;;5.90;69.10;;;;;;4979235;28;89448;-62
2021/10/26 08:13:09;;;;;;;;;;;6.00;69.10;;;;;;4979815;28;87154;-62
2021/10/26 08:15:35;;;;;;;;;;;6.00;68.80;;;;;;4980362;28;88106;-62
2021/10/26 08:18:00;;;;;;;;;;;6.00;68.90;;;;;;4984068;28;89268;-62
2021/10/26 08:20:26;;;;;;;;;;;6.00;69.00;;;;;;4982654;28;87621;-62
2021/10/26 08:22:52;;;;;;;;;;;6.00;69.20;;;;;;4981808;28;88436;-62
2021/10/26 08:25:24;;;;;;;;;;;6.00;69.20;;;;;;4981005;28;87212;-62
2021/10/26 08:27:50;;;;;;;;;;;6.00;68.80;;;;;;4982172;28;89428;-62
2021/10/26 08:35:30;;;;;;;;;;;6.00;69.30;;;;;;4978782;28;87181;-61
2021/10/26 08:38:00;;;;;;;;;;;6.00;69.20;;;;;;4980907;28;89221;-62
2021/10/26 08:40:28;;;;;;;;;;;5.90;69.30;;;;;;4984374;28;88138;-63
2021/10/26 08:42:54;;;;;;;;;;;6.00;69.30;;;;;;4980697;28;89236;-62
2021/10/26 08:45:20;;;;;;;;;;;6.00;69.40;;;;;;4981893;28;87120;-62
2021/10/26 08:47:46;;;;;;;;;;;6.00;69.50;;;;;;4981397;28;87961;-62
2021/10/26 08:50:12;;;;;;;;;;;5.90;69.60;;;;;;4981706;28;87931;-63
2021/10/26 08:52:38;;;;;;;;;;;5.90;69.30;;;;;;4981132;28;87944;-61
2021/10/26 08:55:06;;;;;;;;;;;5.90;69.50;;;;;;4978246;28;88774;-62
2021/10/26 08:57:32;;;;;;;;;;;5.90;69.80;;;;;;4980547;28;89396;-62
2021/10/26 09:00:05;;;;;;;;;;;5.90;69.80;;;;;;4980899;28;87205;-62
2021/10/26 09:02:32;;;;;;;;;;;5.90;69.80;;;;;;4981467;28;87171;-62
2021/10/26 09:05:04;;;;;;;;;;;5.80;70.00;;;;;;4977231;28;88059;-62
2021/10/26 09:07:29;;;;;;;;;;;5.90;70.20;;;;;;4977660;28;89764;-62
2021/10/26 09:10:06;;;;;;;;;;;5.80;70.00;;;;;;4978386;28;88147;-62
2021/10/26 09:17:50;;;;;;;;;;;5.80;70.30;;;;;;4977493;28;87146;-62
2021/10/26 09:20:18;;;;;;;;;;;5.90;70.10;;;;;;4978396;28;87139;-62
2021/10/26 09:22:55;;;;;;;;;;;5.90;70.30;;;;;;4982999;28;89108;-62
2021/10/26 09:25:30;;;;;;;;;;;5.80;70.20;;;;;;4980771;28;87323;-62
2021/10/26 09:28:05;;;;;;;;;;;5.80;70.40;;;;;;4977534;28;87620;-62
2021/10/26 09:30:31;;;;;;;;;;;5.80;70.60;;;;;;4977503;28;88687;-62
2021/10/26 09:32:57;;;;;;;;;;;5.80;70.60;;;;;;4979337;28;87152;-62
2021/10/26 09:35:24;;;;;;;;;;;5.80;70.80;;;;;;4980829;28;87590;-62
2021/10/26 09:37:52;;;;;;;;;;;5.80;70.80;;;;;;4977735;28;88149;-62
2021/10/26 09:40:18;;;;;;;;;;;5.80;70.80;;;;;;4979799;28;88127;-61
2021/10/26 09:42:44;;;;;;;;;;;5.80;70.70;;;;;;4977070;28;88995;-61
2021/10/26 09:45:13;;;;;;;;;;;5.80;70.80;;;;;;4979473;28;89337;-61
2021/10/26 09:47:39;;;;;;;;;;;5.90;71.10;;;;;;4981338;28;88827;-62
2021/10/26 09:50:06;;;;;;;;;;;6.00;70.70;;;;;;4979334;28;87647;-62
2021/10/26 09:52:33;;;;;;;;;;;6.10;70.60;;;;;;4978625;28;87105;-62
2021/10/26 09:57:48;;;;;;;;;;;6.10;70.50;;;;;;4976385;28;88108;-62
2021/10/26 10:00:18;;;;;;;;;;;6.10;70.60;;;;;;4979632;28;88724;-62
2021/10/26 10:02:55;;;;;;;;;;;6.10;70.60;;;;;;4977633;28;87583;-61
2021/10/26 10:05:24;;;;;;;;;;;6.10;70.50;;;;;;4976541;28;88202;-61
2021/10/26 10:07:50;;;;;;;;;;;6.20;70.40;;;;;;4980492;28;87143;-61
2021/10/26 10:10:16;;;;;;;;;;;6.20;70.50;;;;;;4979064;28;89581;-62
2021/10/26 10:12:44;;;;;;;;;;;6.20;70.40;;;;;;4980736;28;86484;-62
2021/10/26 10:15:10;;;;;;;;;;;6.20;70.50;;;;;;4977718;28;88027;-61
2021/10/26 10:17:37;;;;;;;;;;;6.20;70.50;;;;;;4977404;28;89106;-62
2021/10/26 10:20:06;;;;;;;;;;;6.20;70.30;;;;;;4977713;28;88068;-61
2021/10/26 10:22:32;;;;;;;;;;;6.30;70.40;;;;;;4979485;28;89399;-62
2021/10/26 10:25:00;;;;;;;;;;;6.30;71.10;;;;;;4978426;28;89479;-67
2021/10/26 10:27:26;;;;;;;;;;;6.30;71.10;;;;;;4978631;28;87161;-67
2021/10/26 10:29:52;;;;;;;;;;;6.30;71.00;;;;;;4980644;28;87276;-58
2021/10/26 10:32:20;;;;;;;;;;;6.40;70.60;;;;;;4977264;28;87197;-64
2021/10/26 10:34:45;;;;;;;;;;;6.50;70.10;;;;;;4980157;28;87398;-67
2021/10/26 10:37:11;;;;;;;;;;;6.50;69.80;;;;;;4979400;28;86828;-65
2021/10/26 10:39:37;;;;;;;;;;;6.40;70.30;;;;;;4979395;28;87145;-65
2021/10/26 10:42:32;;;;;;;;;;;6.40;70.00;;;;;;4980471;28;87387;-66
2021/10/26 10:44:58;;;;;;;;;;;6.60;70.10;;;;;;4977616;28;90539;-64
2021/10/26 10:47:29;;;;;;;;;;;6.60;70.30;;;;;;4976621;28;87675;-65
2021/10/26 10:49:55;;;;;;;;;;;6.60;70.20;;;;;;4976372;28;89176;-65
2021/10/26 10:52:27;;;;;;;;;;;6.60;70.10;;;;;;4978379;28;89231;-65
2021/10/26 10:55:01;;;;;;;;;;;6.70;69.80;;;;;;4976370;28;88590;-65
2021/10/26 10:57:36;;;;;;;;;;;6.70;69.60;;;;;;4979078;28;88808;-66
2021/10/26 11:00:16;;;;;;;;;;;6.70;69.70;;;;;;4979382;28;87297;-68
2021/10/26 11:02:46;;;;;;;;;;;6.70;69.80;;;;;;4976929;28;87899;-66
2021/10/26 11:05:30;;;;;;;;;;;6.70;69.90;;;;;;4977726;28;87689;-66
2021/10/26 11:07:56;;;;;;;;;;;6.70;69.90;;;;;;4976927;28;88867;-71
2021/10/26 11:10:22;;;;;;;;;;;6.70;70.30;;;;;;4978522;28;88866;-70
2021/10/26 11:12:48;;;;;;;;;;;6.80;70.00;;;;;;4978895;28;88678;-70
2021/10/26 11:15:34;;;;;;;;;;;6.80;69.70;;;;;;4983164;28;87169;-70
2021/10/26 11:17:59;;;;;;;;;;;6.80;69.80;;;;;;4980026;28;87849;-71
2021/10/26 11:20:31;;;;;;;;;;;6.80;69.90;;;;;;4983606;28;87224;-71
2021/10/26 11:23:01;;;;;;;;;;;6.80;69.90;;;;;;4983226;28;88680;-69
2021/10/26 11:25:27;;;;;;;;;;;6.90;69.90;;;;;;4979151;28;88198;-70
2021/10/26 11:27:53;;;;;;;;;;;6.90;69.90;;;;;;4980069;28;86504;-56
2021/10/26 11:30:28;;;;;;;;;;;6.90;70.90;;;;;;4979726;28;87116;-69
2021/10/26 11:33:08;;;;;;;;;;;6.90;71.20;;;;;;4980404;28;88148;-60
2021/10/26 11:35:47;;;;;;;;;;;7.00;71.30;;;;;;4983096;28;88142;-61
2021/10/26 11:38:14;;;;;;;;;;;7.00;71.30;;;;;;4978741;28;89527;-61
2021/10/26 11:40:52;;;;;;;;;;;7.00;71.30;;;;;;4974295;28;87701;-62
2021/10/26 11:43:17;;;;;;;;;;;7.10;71.00;;;;;;4983012;28;87506;-53
2021/10/26 11:45:56;;;;;;;;;;;7.20;71.10;;;;;;4982138;28;88996;-70
2021/10/26 11:48:42;;;;;;;;;;;7.30;71.50;;;;;;4980312;28;87148;-61
2021/10/26 11:51:14;;;;;;;;;;;7.30;71.80;;;;;;4980440;28;88917;-60
2021/10/26 11:53:40;;;;;;;;;;;7.20;71.40;;;;;;4979105;28;89239;-61
2021/10/26 11:56:22;;;;;;;;;;;7.20;71.70;;;;;;4982703;28;88379;-60
2021/10/26 11:59:04;;;;;;;;;;;7.10;71.70;;;;;;4984548;28;88804;-60
2021/10/26 12:01:36;;;;;;;;;;;7.10;71.90;;;;;;4980896;28;88075;-61
2021/10/26 12:04:04;;;;;;;;;;;7.10;71.90;;;;;;4981413;28;87959;-61
2021/10/26 12:06:36;;;;;;;;;;;7.10;72.00;;;;;;4978039;28;89379;-61
2021/10/26 12:09:04;;;;;;;;;;;7.20;71.70;;;;;;4981473;28;87124;-55
2021/10/26 12:11:32;;;;;;;;;;;7.20;71.70;;;;;;4980308;28;87591;-56
2021/10/26 12:14:10;;;;;;;;;;;7.30;72.00;;;;;;4977735;28;89992;-61
2021/10/26 12:16:35;;;;;;;;;;;7.40;72.00;;;;;;4981393;28;87207;-64
2021/10/26 12:19:01;;;;;;;;;;;7.40;73.70;;;;;;4981526;28;86937;-63
2021/10/26 12:21:26;;;;;;;;;;;7.60;71.00;;;;;;4983045;28;88303;-60
2021/10/26 12:23:52;;;;;;;;;;;7.70;70.20;;;;;;4979944;28;88092;-54
2021/10/26 12:26:18;;;;;;;;;;;7.90;69.50;;;;;;4977808;28;88038;-60
2021/10/26 12:28:56;;;;;;;;;;;7.90;68.80;;;;;;4978881;28;87166;-61
2021/10/26 12:31:24;;;;;;;;;;;7.80;69.90;;;;;;4981700;28;88551;-61
2021/10/26 12:34:01;;;;;;;;;;;7.70;70.50;;;;;;4979349;28;89441;-61
2021/10/26 12:36:27;;;;;;;;;;;7.60;70.90;;;;;;4979832;28;87118;-61
2021/10/26 12:39:05;;;;;;;;;;;7.60;71.10;;;;;;4979939;28;88721;-60
2021/10/26 12:41:37;;;;;;;;;;;7.60;71.20;;;;;;4978423;28;88182;-60
2021/10/26 12:44:07;;;;;;;;;;;7.60;71.30;;;;;;4984561;28;88084;-60
2021/10/26 12:46:33;;;;;;;;;;;7.60;71.40;;;;;;4977230;28;89712;-60
2021/10/26 12:49:09;;;;;;;;;;;7.60;71.40;;;;;;4978221;28;87171;-60
2021/10/26 12:51:34;;;;;;;;;;;7.60;71.40;;;;;;4978725;28;89277;-60
2021/10/26 12:54:12;;;;;;;;;;;7.60;71.40;;;;;;4980120;28;87681;-60
2021/10/26 12:56:44;;;;;;;;;;;7.60;71.40;;;;;;4979237;28;87214;-58
2021/10/26 12:59:09;;;;;;;;;;;7.60;71.50;;;;;;4978567;28;87744;-60
2021/10/26 13:01:39;;;;;;;;;;;7.60;71.50;;;;;;4979599;28;87155;-60
2021/10/26 13:04:19;;;;;;;;;;;7.70;71.50;;;;;;4982063;28;87119;-60
2021/10/26 13:06:54;;;;;;;;;;;7.70;71.50;;;;;;4981708;28;87461;-57
2021/10/26 13:09:44;;;;;;;;;;;7.70;71.70;;;;;;4979759;28;86404;-61
2021/10/26 13:12:16;;;;;;;;;;;7.80;71.10;;;;;;4981234;28;87168;-58
2021/10/26 13:14:46;;;;;;;;;;;7.90;70.90;;;;;;4980490;28;89458;-57
2021/10/26 13:17:26;;;;;;;;;;;7.90;71.00;;;;;;4978374;28;88134;-54
2021/10/26 13:20:07;;;;;;;;;;;7.90;71.10;;;;;;4977811;28;89887;-57
2021/10/26 13:22:33;;;;;;;;;;;7.80;71.10;;;;;;4979034;28;87116;-55
2021/10/26 13:25:00;;;;;;;;;;;7.90;71.20;;;;;;4978689;28;87114;-60
2021/10/26 13:27:26;;;;;;;;;;;8.00;71.30;;;;;;4977262;28;87573;-60
2021/10/26 13:29:52;;;;;;;;;;;8.10;72.50;;;;;;4980955;28;88559;-48
2021/10/26 13:32:19;;;;;;;;;;;8.30;74.20;;;;;;4978279;28;88416;-59
2021/10/26 13:34:45;;;;;;;;;;;8.40;73.70;;;;;;4977417;28;87009;-55
2021/10/26 13:37:11;;;;;;;;;;;8.40;73.30;;;;;;4977026;28;87146;-58
2021/10/26 13:39:36;;;;;;;;;;;8.40;73.00;;;;;;4977273;28;87548;-58
2021/10/26 13:42:02;;;;;;;;;;;8.40;72.80;;;;;;4976515;28;89310;-59
2021/10/26 13:44:28;;;;;;;;;;;8.40;72.80;;;;;;4977696;28;87268;-61
2021/10/26 13:46:53;;;;;;;;;;;8.40;72.60;;;;;;4977728;28;87935;-62
2021/10/26 13:49:19;;;;;;;;;;;8.40;72.50;;;;;;4981251;28;87570;-56
2021/10/26 13:51:46;;;;;;;;;;;8.40;72.40;;;;;;5011414;28;89386;-62
2021/10/26 13:54:12;;;;;;;;;;;8.50;72.60;;;;;;4977650;28;89263;-66
2021/10/26 13:56:38;;;;;;;;;;;8.50;72.60;;;;;;4978852;28;87224;-65
2021/10/26 13:59:04;;;;;;;;;;;8.60;72.70;;;;;;4978839;28;87256;-67
2021/10/26 14:01:29;;;;;;;;;;;8.60;72.60;;;;;;4976219;28;89500;-64
2021/10/26 14:03:55;;;;;;;;;;;8.50;73.30;;;;;;4977114;28;87964;-68
2021/10/26 14:06:24;;;;;;;;;;;8.50;72.80;;;;;;4976963;28;88171;-62
2021/10/26 14:08:55;;;;;;;;;;;8.60;73.20;;;;;;4980543;28;89252;-64
2021/10/26 14:11:20;;;;;;;;;;;8.60;73.30;;;;;;4982557;28;87722;-65
2021/10/26 14:13:46;;;;;;;;;;;8.50;72.90;;;;;;4976259;28;88254;-65
2021/10/26 14:16:12;;;;;;;;;;;8.60;72.40;;;;;;4977483;28;87105;-64
2021/10/26 14:18:39;;;;;;;;;;;8.50;72.20;;;;;;4977092;28;87202;-65
2021/10/26 14:21:06;;;;;;;;;;;8.50;71.90;;;;;;4976105;28;87848;-65
2021/10/26 14:23:34;;;;;;;;;;;8.50;71.90;;;;;;4979459;28;87153;-61
2021/10/26 14:26:00;;;;;;;;;;;8.60;70.70;;;;;;4980044;28;87645;-63
2021/10/26 14:28:29;;;;;;;;;;;8.60;70.70;;;;;;4978339;28;87634;-61
2021/10/26 14:30:58;;;;;;;;;;;8.50;71.10;;;;;;4979117;28;88193;-64
2021/10/26 14:33:23;;;;;;;;;;;8.50;71.30;;;;;;4979077;28;89581;-64
2021/10/26 14:35:52;;;;;;;;;;;8.50;71.50;;;;;;4983901;28;87186;-63
2021/10/26 14:38:31;;;;;;;;;;;8.60;71.60;;;;;;4979104;28;88770;-63
2021/10/26 14:41:18;;;;;;;;;;;8.50;71.70;;;;;;4976795;28;89143;-63
2021/10/26 14:57:19;;;;;;;;;;;8.60;71.90;;;;;;4981662;28;88957;-63
2021/10/26 14:59:45;;;;;;;;;;;8.60;71.90;;;;;;4979364;28;88060;-49